LQJL weather

Tuzla Jegin Lug Sport Airfield
Tuzla, Federacija Bosna i Hercegovina, Bosnia and Herzegovina

Public forecast

Using degrees Celsius for public forecast. Weather courtesy of forecast.io.

METAR (pilot weather report)

Closest report is Tuzla International Airport, 3.6 nm (6.6 km) W. Retrieved 2019/06/18 22:00 UTC (49 minutes ago):

LQTZ 182200Z 13003KT 9999 FEW040 21/16 Q1016

TAF (pilot weather forecast)

Closest forecast is Tuzla International Airport, 3.6 nm (6.6 km) W. Retrieved 2019/06/18 22:06 UTC (43 minutes ago):

TAF LQTZ 182202Z 1822/1918 CNL